Time;durP1;ratioP1;P1;durP2;ratioP2;P2;SDS_P1;SDS_P2;PMS_P1;PMS_P2;Temp;Humidity;BMP_temperature;BMP_pressure;BME280_temperature;BME280_humidity;BME280_pressure;Samples;Min_cycle;Max_cycle;Signal;HPM_P1;HPM_P2
2022/12/24 00:01:32;;;;;;;;;;;;;;;;;;5071634;28;19924;-55
2022/12/24 00:03:58;;;;;;;;;;;;;;;;;;5068298;28;19976;-53
2022/12/24 00:06:25;;;;;;;;;;;;;;;;;;5051426;28;19929;-51
2022/12/24 00:08:51;;;;;;;;;;;;;;;;;;5051549;28;19924;-53
2022/12/24 00:11:19;;;;;;;;;;;;;;;;;;5051622;28;19959;-54
2022/12/24 00:13:46;;;;;;;;;;;;;;;;;;5051375;28;20396;-56
2022/12/24 00:16:12;;;;;;;;;;;;;;;;;;5051463;28;20490;-54
2022/12/24 00:18:39;;;;;;;;;;;;;;;;;;5051540;28;19929;-52
2022/12/24 00:21:06;;;;;;;;;;;;;;;;;;5051551;28;19929;-50
2022/12/24 00:23:32;;;;;;;;;;;;;;;;;;5051155;28;20336;-54
2022/12/24 00:25:59;;;;;;;;;;;;;;;;;;5053291;28;20374;-52
2022/12/24 00:28:27;;;;;;;;;;;;;;;;;;5055115;28;19925;-55
2022/12/24 00:30:53;;;;;;;;;;;;;;;;;;5054931;28;19982;-55
2022/12/24 00:33:21;;;;;;;;;;;;;;;;;;5054635;28;19979;-49
2022/12/24 00:35:49;;;;;;;;;;;;;;;;;;5054799;28;20297;-55
2022/12/24 00:38:16;;;;;;;;;;;;;;;;;;5054699;28;19932;-55
2022/12/24 00:40:42;;;;;;;;;;;;;;;;;;5090801;22;19978;-75
2022/12/24 00:43:09;;;;;;;;;;;;;;;;;;5080646;28;20489;-75
2022/12/24 00:45:36;;;;;;;;;;;;;;;;;;5081868;28;19959;-76
2022/12/24 00:48:03;;;;;;;;;;;;;;;;;;5081661;28;20020;-75
2022/12/24 00:50:30;;;;;;;;;;;;;;;;;;5081720;28;19951;-76
2022/12/24 00:52:56;;;;;;;;;;;;;;;;;;5080867;28;19924;-76
2022/12/24 00:55:23;;;;;;;;;;;;;;;;;;5081492;28;20301;-76
2022/12/24 00:57:49;;;;;;;;;;;;;;;;;;5081751;28;20019;-77
2022/12/24 01:00:16;;;;;;;;;;;;;;;;;;5081815;28;19928;-76
2022/12/24 01:02:44;;;;;;;;;;;;;;;;;;5075205;28;19947;-76
2022/12/24 01:05:10;;;;;;;;;;;;;;;;;;5061704;28;19986;-76
2022/12/24 01:07:37;;;;;;;;;;;;;;;;;;5054704;28;19924;-76
2022/12/24 01:10:04;;;;;;;;;;;;;;;;;;5054731;28;20438;-76
2022/12/24 01:12:30;;;;;;;;;;;;;;;;;;5054287;28;20330;-76
2022/12/24 01:14:57;;;;;;;;;;;;;;;;;;5054431;28;19925;-76
2022/12/24 01:17:23;;;;;;;;;;;;;;;;;;5054359;28;19925;-76
2022/12/24 01:19:51;;;;;;;;;;;;;;;;;;5054101;28;19932;-76
2022/12/24 01:22:18;;;;;;;;;;;;;;;;;;5054419;28;19975;-76
2022/12/24 01:24:44;;;;;;;;;;;;;;;;;;5054060;28;20284;-76
2022/12/24 01:27:11;;;;;;;;;;;;;;;;;;5054066;28;19966;-76
2022/12/24 01:29:37;;;;;;;;;;;;;;;;;;5054109;28;19986;-76
2022/12/24 01:32:04;;;;;;;;;;;;;;;;;;5053805;28;19980;-76
2022/12/24 01:34:30;;;;;;;;;;;;;;;;;;5053780;28;20012;-76
2022/12/24 01:36:58;;;;;;;;;;;;;;;;;;5053196;28;19974;-76
2022/12/24 01:39:25;;;;;;;;;;;;;;;;;;5053895;28;19931;-76
2022/12/24 01:44:39;;;;;;;;;;;;;;;;;;5053552;28;19947;-76
2022/12/24 01:47:08;;;;;;;;;;;;;;;;;;5053403;28;19935;-76
2022/12/24 01:49:35;;;;;;;;;;;;;;;;;;5053434;28;20003;-76
2022/12/24 01:52:05;;;;;;;;;;;;;;;;;;5053493;28;20019;-76
2022/12/24 01:54:32;;;;;;;;;;;;;;;;;;5053475;28;19931;-76
2022/12/24 01:57:01;;;;;;;;;;;;;;;;;;5053479;28;19933;-76
2022/12/24 01:59:28;;;;;;;;;;;;;;;;;;5053225;28;20300;-76
2022/12/24 02:01:54;;;;;;;;;;;;;;;;;;5054044;28;19931;-76
2022/12/24 02:04:26;;;;;;;;;;;;;;;;;;5053231;28;20410;-76
2022/12/24 02:06:52;;;;;;;;;;;;;;;;;;5052931;28;20015;-76
2022/12/24 02:09:20;;;;;;;;;;;;;;;;;;5053046;28;19931;-76
2022/12/24 02:11:47;;;;;;;;;;;;;;;;;;5053154;28;19931;-76
2022/12/24 02:14:14;;;;;;;;;;;;;;;;;;5052677;28;20288;-76
2022/12/24 02:16:43;;;;;;;;;;;;;;;;;;5053004;28;19972;-76
2022/12/24 02:19:19;;;;;;;;;;;;;;;;;;5053087;28;20011;-75
2022/12/24 02:21:51;;;;;;;;;;;;;;;;;;5060725;28;20467;-76
2022/12/24 02:24:27;;;;;;;;;;;;;;;;;;5062565;28;20380;-76
2022/12/24 02:27:06;;;;;;;;;;;;;;;;;;5062990;28;19928;-76
2022/12/24 02:29:45;;;;;;;;;;;;;;;;;;5062527;28;19925;-76
2022/12/24 02:32:13;;;;;;;;;;;;;;;;;;5061112;28;20475;-76
2022/12/24 02:34:44;;;;;;;;;;;;;;;;;;5052462;28;19931;-77
2022/12/24 02:37:14;;;;;;;;;;;;;;;;;;5053183;28;20287;-77
2022/12/24 02:39:44;;;;;;;;;;;;;;;;;;5052414;28;19936;-77
2022/12/24 02:42:11;;;;;;;;;;;;;;;;;;5053546;28;19976;-77
2022/12/24 02:44:40;;;;;;;;;;;;;;;;;;5052832;28;19931;-77
2022/12/24 02:47:09;;;;;;;;;;;;;;;;;;5052651;28;20019;-76
2022/12/24 02:49:36;;;;;;;;;;;;;;;;;;5051587;28;20016;-76
2022/12/24 02:52:02;;;;;;;;;;;;;;;;;;5052670;28;20031;-76
2022/12/24 02:54:29;;;;;;;;;;;;;;;;;;5051882;28;20307;-76
2022/12/24 02:57:06;;;;;;;;;;;;;;;;;;5052424;28;20383;-77
2022/12/24 03:02:47;;;;;;;;;;;;;;;;;;5049305;28;19923;-77
2022/12/24 03:05:18;;;;;;;;;;;;;;;;;;5052262;28;20280;-77
2022/12/24 03:07:47;;;;;;;;;;;;;;;;;;5052100;28;19935;-77
2022/12/24 03:10:18;;;;;;;;;;;;;;;;;;5052094;28;20380;-77
2022/12/24 03:12:46;;;;;;;;;;;;;;;;;;5052028;28;20000;-76
2022/12/24 03:15:13;;;;;;;;;;;;;;;;;;5052087;28;20381;-76
2022/12/24 03:17:41;;;;;;;;;;;;;;;;;;5051988;28;19924;-76
2022/12/24 03:20:11;;;;;;;;;;;;;;;;;;5052054;28;19924;-76
2022/12/24 03:22:37;;;;;;;;;;;;;;;;;;5052122;28;19931;-76
2022/12/24 03:25:04;;;;;;;;;;;;;;;;;;5052273;28;19931;-76
2022/12/24 03:27:32;;;;;;;;;;;;;;;;;;5051823;28;20015;-76
2022/12/24 03:29:59;;;;;;;;;;;;;;;;;;5051940;28;20394;-76
2022/12/24 03:32:27;;;;;;;;;;;;;;;;;;5051802;28;20027;-76
2022/12/24 03:34:54;;;;;;;;;;;;;;;;;;5052344;28;20011;-77
2022/12/24 03:37:22;;;;;;;;;;;;;;;;;;5051913;28;20024;-77
2022/12/24 03:39:49;;;;;;;;;;;;;;;;;;5051953;28;20324;-76
2022/12/24 03:42:15;;;;;;;;;;;;;;;;;;5051967;28;20011;-77
2022/12/24 03:44:42;;;;;;;;;;;;;;;;;;5051981;28;20383;-76
2022/12/24 03:47:08;;;;;;;;;;;;;;;;;;5054244;28;20008;-77
2022/12/24 03:49:35;;;;;;;;;;;;;;;;;;5052664;28;19999;-77
2022/12/24 03:52:01;;;;;;;;;;;;;;;;;;5052301;28;20007;-77
2022/12/24 03:54:29;;;;;;;;;;;;;;;;;;5052072;28;19925;-76
2022/12/24 03:56:55;;;;;;;;;;;;;;;;;;5052145;28;20387;-77
2022/12/24 03:59:22;;;;;;;;;;;;;;;;;;5052780;28;20290;-77
2022/12/24 04:01:49;;;;;;;;;;;;;;;;;;5056520;28;19924;-76
2022/12/24 04:04:15;;;;;;;;;;;;;;;;;;5055855;28;20383;-76
2022/12/24 04:06:42;;;;;;;;;;;;;;;;;;5056092;28;19968;-76
2022/12/24 04:09:08;;;;;;;;;;;;;;;;;;5055509;28;19964;-76
2022/12/24 04:11:36;;;;;;;;;;;;;;;;;;5056010;28;20024;-76
2022/12/24 04:14:02;;;;;;;;;;;;;;;;;;5055118;28;19960;-76
2022/12/24 04:16:29;;;;;;;;;;;;;;;;;;5055222;28;20345;-76
2022/12/24 04:18:55;;;;;;;;;;;;;;;;;;5055052;28;20419;-76
2022/12/24 04:21:22;;;;;;;;;;;;;;;;;;5055370;28;19964;-76
2022/12/24 04:23:48;;;;;;;;;;;;;;;;;;5054885;28;19925;-76
2022/12/24 04:26:15;;;;;;;;;;;;;;;;;;5055346;28;19924;-76
2022/12/24 04:28:43;;;;;;;;;;;;;;;;;;5054953;28;20011;-76
2022/12/24 04:31:10;;;;;;;;;;;;;;;;;;5055316;28;19971;-75
2022/12/24 04:33:37;;;;;;;;;;;;;;;;;;5054650;28;19925;-75
2022/12/24 04:36:05;;;;;;;;;;;;;;;;;;5055073;28;19956;-75
2022/12/24 04:38:31;;;;;;;;;;;;;;;;;;5054572;28;20351;-76
2022/12/24 04:40:58;;;;;;;;;;;;;;;;;;5054700;28;20031;-76
2022/12/24 04:43:25;;;;;;;;;;;;;;;;;;5054622;28;19925;-75
2022/12/24 04:45:53;;;;;;;;;;;;;;;;;;5055108;28;19929;-76
2022/12/24 04:48:19;;;;;;;;;;;;;;;;;;5054771;28;19924;-76
2022/12/24 04:50:46;;;;;;;;;;;;;;;;;;5054719;28;20019;-76
2022/12/24 04:53:14;;;;;;;;;;;;;;;;;;5054544;28;19975;-76
2022/12/24 04:55:43;;;;;;;;;;;;;;;;;;5055148;28;19924;-76
2022/12/24 04:58:10;;;;;;;;;;;;;;;;;;5054614;28;19928;-75
2022/12/24 05:00:36;;;;;;;;;;;;;;;;;;5054682;28;19925;-76
2022/12/24 05:03:04;;;;;;;;;;;;;;;;;;5054692;28;20022;-76
2022/12/24 05:05:30;;;;;;;;;;;;;;;;;;5038903;28;19972;-77
2022/12/24 05:07:57;;;;;;;;;;;;;;;;;;5034452;28;20563;-76
2022/12/24 05:10:23;;;;;;;;;;;;;;;;;;5033957;28;20475;-75
2022/12/24 05:12:50;;;;;;;;;;;;;;;;;;5033748;28;20016;-76
2022/12/24 05:15:16;;;;;;;;;;;;;;;;;;5034935;28;19972;-76
2022/12/24 05:17:42;;;;;;;;;;;;;;;;;;5034585;28;19925;-76
2022/12/24 05:20:10;;;;;;;;;;;;;;;;;;5034457;28;20392;-76
2022/12/24 05:28:05;;;;;;;;;;;;;;;;;;5034446;28;19974;-77
2022/12/24 05:30:31;;;;;;;;;;;;;;;;;;5034107;28;20114;-77
2022/12/24 05:32:58;;;;;;;;;;;;;;;;;;5033703;28;19993;-76
2022/12/24 05:35:26;;;;;;;;;;;;;;;;;;5033725;28;19931;-76
2022/12/24 05:37:52;;;;;;;;;;;;;;;;;;5034845;28;20020;-76
2022/12/24 05:40:18;;;;;;;;;;;;;;;;;;5035485;28;20503;-77
2022/12/24 05:42:45;;;;;;;;;;;;;;;;;;5035031;28;19931;-77
2022/12/24 05:45:11;;;;;;;;;;;;;;;;;;5035735;28;20015;-77
2022/12/24 05:47:38;;;;;;;;;;;;;;;;;;5035043;28;20376;-76
2022/12/24 05:50:05;;;;;;;;;;;;;;;;;;5033509;28;19968;-76
2022/12/24 05:52:33;;;;;;;;;;;;;;;;;;5033361;28;20443;-77
2022/12/24 05:54:59;;;;;;;;;;;;;;;;;;5033791;28;19964;-77
2022/12/24 05:57:26;;;;;;;;;;;;;;;;;;5033386;28;20007;-76
2022/12/24 05:59:52;;;;;;;;;;;;;;;;;;5033432;28;19992;-77
2022/12/24 06:02:18;;;;;;;;;;;;;;;;;;5033569;28;19964;-77
2022/12/24 06:04:45;;;;;;;;;;;;;;;;;;5042305;28;19928;-76
2022/12/24 06:07:11;;;;;;;;;;;;;;;;;;5053262;28;20016;-76
2022/12/24 06:09:39;;;;;;;;;;;;;;;;;;5052951;28;19924;-76
2022/12/24 06:12:06;;;;;;;;;;;;;;;;;;5053256;28;20360;-76
2022/12/24 06:14:32;;;;;;;;;;;;;;;;;;5052760;28;19980;-76
2022/12/24 06:16:59;;;;;;;;;;;;;;;;;;5052869;28;20016;-76
2022/12/24 06:19:25;;;;;;;;;;;;;;;;;;5053113;28;19968;-76
2022/12/24 06:21:52;;;;;;;;;;;;;;;;;;5053247;28;20015;-77
2022/12/24 06:24:18;;;;;;;;;;;;;;;;;;5052520;28;19971;-77
2022/12/24 06:26:46;;;;;;;;;;;;;;;;;;5053046;28;19931;-77
2022/12/24 06:29:13;;;;;;;;;;;;;;;;;;5052709;28;19980;-77
2022/12/24 06:31:39;;;;;;;;;;;;;;;;;;5052715;28;19925;-77
2022/12/24 06:34:06;;;;;;;;;;;;;;;;;;5052914;28;19925;-77
2022/12/24 06:36:32;;;;;;;;;;;;;;;;;;5053025;28;19986;-77
2022/12/24 06:38:58;;;;;;;;;;;;;;;;;;5052714;28;20015;-77
2022/12/24 06:41:25;;;;;;;;;;;;;;;;;;5075441;22;20367;-79
2022/12/24 06:43:53;;;;;;;;;;;;;;;;;;5059376;28;19982;-78
2022/12/24 06:46:20;;;;;;;;;;;;;;;;;;5053312;28;20371;-78
2022/12/24 06:48:47;;;;;;;;;;;;;;;;;;5053557;28;20383;-78
2022/12/24 06:51:14;;;;;;;;;;;;;;;;;;5053120;28;20421;-78
2022/12/24 06:53:40;;;;;;;;;;;;;;;;;;5052772;28;19967;-77
2022/12/24 06:56:07;;;;;;;;;;;;;;;;;;5052609;28;20011;-78
2022/12/24 06:58:34;;;;;;;;;;;;;;;;;;5052771;28;19980;-77
2022/12/24 07:01:02;;;;;;;;;;;;;;;;;;5053367;28;19925;-78
2022/12/24 07:03:29;;;;;;;;;;;;;;;;;;5052399;28;20027;-77
2022/12/24 07:05:55;;;;;;;;;;;;;;;;;;5052466;28;20011;-77
2022/12/24 07:08:22;;;;;;;;;;;;;;;;;;5052340;28;20276;-78
2022/12/24 07:10:49;;;;;;;;;;;;;;;;;;5052519;28;19979;-77
2022/12/24 07:13:15;;;;;;;;;;;;;;;;;;5052240;28;19932;-77
2022/12/24 07:15:42;;;;;;;;;;;;;;;;;;5052465;28;19931;-77
2022/12/24 07:18:10;;;;;;;;;;;;;;;;;;5052696;28;20370;-77
2022/12/24 07:20:36;;;;;;;;;;;;;;;;;;5057036;28;19972;-77
2022/12/24 07:23:02;;;;;;;;;;;;;;;;;;5058397;28;19947;-78
2022/12/24 07:25:29;;;;;;;;;;;;;;;;;;5058850;28;20503;-78
2022/12/24 07:27:55;;;;;;;;;;;;;;;;;;5058175;28;20347;-78
2022/12/24 07:30:22;;;;;;;;;;;;;;;;;;5058856;28;19988;-78
2022/12/24 07:32:48;;;;;;;;;;;;;;;;;;5059886;28;20381;-78
2022/12/24 07:35:16;;;;;;;;;;;;;;;;;;5065367;28;19959;-78
2022/12/24 07:37:42;;;;;;;;;;;;;;;;;;5065790;28;20386;-78
2022/12/24 07:40:09;;;;;;;;;;;;;;;;;;5060172;28;20526;-78
2022/12/24 07:42:36;;;;;;;;;;;;;;;;;;5057127;28;20307;-78
2022/12/24 07:45:02;;;;;;;;;;;;;;;;;;5057492;28;20354;-78
2022/12/24 07:47:29;;;;;;;;;;;;;;;;;;5057885;28;19960;-78
2022/12/24 07:49:55;;;;;;;;;;;;;;;;;;5057658;28;20335;-79
2022/12/24 07:52:23;;;;;;;;;;;;;;;;;;5057534;28;19935;-79
2022/12/24 07:54:49;;;;;;;;;;;;;;;;;;5056902;28;19978;-78
2022/12/24 07:57:16;;;;;;;;;;;;;;;;;;5056880;28;20011;-78
2022/12/24 07:59:42;;;;;;;;;;;;;;;;;;5056897;28;20344;-77
2022/12/24 08:02:09;;;;;;;;;;;;;;;;;;5056522;28;19971;-77
2022/12/24 08:04:36;;;;;;;;;;;;;;;;;;5056685;28;20353;-77
2022/12/24 08:07:02;;;;;;;;;;;;;;;;;;5056063;28;19983;-77
2022/12/24 08:09:32;;;;;;;;;;;;;;;;;;5055911;28;20383;-77
2022/12/24 08:11:58;;;;;;;;;;;;;;;;;;5056026;28;19925;-77
2022/12/24 08:14:25;;;;;;;;;;;;;;;;;;5055406;28;20383;-78
2022/12/24 08:16:51;;;;;;;;;;;;;;;;;;5055794;28;20007;-78
2022/12/24 08:19:18;;;;;;;;;;;;;;;;;;5055998;28;19968;-79
2022/12/24 08:21:44;;;;;;;;;;;;;;;;;;5056358;28;19931;-78
2022/12/24 08:24:11;;;;;;;;;;;;;;;;;;5056329;28;20019;-78
2022/12/24 08:26:39;;;;;;;;;;;;;;;;;;5056846;28;20020;-78
2022/12/24 08:29:05;;;;;;;;;;;;;;;;;;5056655;28;20023;-78
2022/12/24 08:31:35;;;;;;;;;;;;;;;;;;5056365;28;19925;-78
2022/12/24 08:34:01;;;;;;;;;;;;;;;;;;5056051;28;19925;-78
2022/12/24 08:36:28;;;;;;;;;;;;;;;;;;5056351;28;20019;-78
2022/12/24 08:38:54;;;;;;;;;;;;;;;;;;5056215;28;19988;-78
2022/12/24 08:41:20;;;;;;;;;;;;;;;;;;5056303;28;20300;-79
2022/12/24 08:43:48;;;;;;;;;;;;;;;;;;5056204;28;19993;-78
2022/12/24 08:46:15;;;;;;;;;;;;;;;;;;5054765;28;19976;-78
2022/12/24 08:48:41;;;;;;;;;;;;;;;;;;5056207;28;20015;-78
2022/12/24 08:51:08;;;;;;;;;;;;;;;;;;5055866;28;19961;-77
2022/12/24 08:53:35;;;;;;;;;;;;;;;;;;5054748;28;19929;-78
2022/12/24 08:56:02;;;;;;;;;;;;;;;;;;5055509;28;19980;-77
2022/12/24 08:58:29;;;;;;;;;;;;;;;;;;5055419;28;19925;-77
2022/12/24 09:00:57;;;;;;;;;;;;;;;;;;5054997;28;19968;-77
2022/12/24 09:03:23;;;;;;;;;;;;;;;;;;5055145;28;20015;-76
2022/12/24 09:05:50;;;;;;;;;;;;;;;;;;5055017;28;19932;-77
2022/12/24 09:08:16;;;;;;;;;;;;;;;;;;5054620;28;20011;-77
2022/12/24 09:10:43;;;;;;;;;;;;;;;;;;5054500;28;19924;-77
2022/12/24 09:13:09;;;;;;;;;;;;;;;;;;5054360;28;19960;-77
2022/12/24 09:15:36;;;;;;;;;;;;;;;;;;5054606;28;20015;-77
2022/12/24 09:18:04;;;;;;;;;;;;;;;;;;5054832;28;19925;-77
2022/12/24 09:20:30;;;;;;;;;;;;;;;;;;5055136;28;19925;-77
2022/12/24 09:22:57;;;;;;;;;;;;;;;;;;5054393;28;19975;-77
2022/12/24 09:25:23;;;;;;;;;;;;;;;;;;5055294;28;19947;-78
2022/12/24 09:27:49;;;;;;;;;;;;;;;;;;5054201;28;20447;-78
2022/12/24 09:30:16;;;;;;;;;;;;;;;;;;5054764;28;19931;-77
2022/12/24 09:32:42;;;;;;;;;;;;;;;;;;5054103;28;20007;-78
2022/12/24 09:35:10;;;;;;;;;;;;;;;;;;5054373;28;20024;-78
2022/12/24 09:37:37;;;;;;;;;;;;;;;;;;5054319;28;19995;-78
2022/12/24 09:40:04;;;;;;;;;;;;;;;;;;5054392;28;19931;-78
2022/12/24 09:42:38;;;;;;;;;;;;;;;;;;5053848;28;20311;-78
2022/12/24 09:45:10;;;;;;;;;;;;;;;;;;5054254;28;20382;-78
2022/12/24 09:47:39;;;;;;;;;;;;;;;;;;5053842;28;20427;-79
2022/12/24 09:50:18;;;;;;;;;;;;;;;;;;5054184;28;19929;-77
2022/12/24 09:52:46;;;;;;;;;;;;;;;;;;5053701;28;19925;-78
2022/12/24 09:55:18;;;;;;;;;;;;;;;;;;5054172;28;20012;-77
2022/12/24 09:57:44;;;;;;;;;;;;;;;;;;5053344;28;19979;-77
2022/12/24 10:00:17;;;;;;;;;;;;;;;;;;5053952;28;20016;-77
2022/12/24 10:02:43;;;;;;;;;;;;;;;;;;5053735;28;19955;-77
2022/12/24 10:05:13;;;;;;;;;;;;;;;;;;5066718;28;19975;-77
2022/12/24 10:07:45;;;;;;;;;;;;;;;;;;5073617;28;19972;-77
2022/12/24 10:10:17;;;;;;;;;;;;;;;;;;5074217;28;20019;-77
2022/12/24 10:12:47;;;;;;;;;;;;;;;;;;5073312;28;20383;-78
2022/12/24 10:15:16;;;;;;;;;;;;;;;;;;5073790;28;20007;-77
2022/12/24 10:17:48;;;;;;;;;;;;;;;;;;5073333;28;20007;-78
2022/12/24 10:20:25;;;;;;;;;;;;;;;;;;5073602;28;20401;-78
2022/12/24 10:22:56;;;;;;;;;;;;;;;;;;5073160;28;20004;-78
2022/12/24 10:25:27;;;;;;;;;;;;;;;;;;5073387;28;20371;-77
2022/12/24 10:27:54;;;;;;;;;;;;;;;;;;5073642;28;19983;-78
2022/12/24 10:30:22;;;;;;;;;;;;;;;;;;5073795;28;20016;-77
2022/12/24 10:32:49;;;;;;;;;;;;;;;;;;5073237;28;19924;-78
2022/12/24 10:35:19;;;;;;;;;;;;;;;;;;5073152;28;19972;-77
2022/12/24 10:37:46;;;;;;;;;;;;;;;;;;5073801;28;20331;-78
2022/12/24 10:40:14;;;;;;;;;;;;;;;;;;5074008;28;19931;-78
2022/12/24 10:42:42;;;;;;;;;;;;;;;;;;5073770;28;20006;-78
2022/12/24 10:45:14;;;;;;;;;;;;;;;;;;5074301;28;19925;-78
2022/12/24 10:47:41;;;;;;;;;;;;;;;;;;5075696;28;19981;-77
2022/12/24 10:50:13;;;;;;;;;;;;;;;;;;5075218;28;20301;-78
2022/12/24 10:52:41;;;;;;;;;;;;;;;;;;5074538;28;19931;-78
2022/12/24 10:55:09;;;;;;;;;;;;;;;;;;5077204;28;19925;-79
2022/12/24 10:57:36;;;;;;;;;;;;;;;;;;5074554;28;19935;-78
2022/12/24 11:00:06;;;;;;;;;;;;;;;;;;5076580;28;19998;-78
2022/12/24 11:02:33;;;;;;;;;;;;;;;;;;5074308;28;19924;-78
2022/12/24 11:05:00;;;;;;;;;;;;;;;;;;5074688;28;19956;-79
2022/12/24 11:07:28;;;;;;;;;;;;;;;;;;5074384;28;19929;-76
2022/12/24 11:09:55;;;;;;;;;;;;;;;;;;5073723;28;19931;-79
2022/12/24 11:12:22;;;;;;;;;;;;;;;;;;5073869;28;19971;-79
2022/12/24 11:14:58;;;;;;;;;;;;;;;;;;5073975;28;20397;-77
2022/12/24 11:17:26;;;;;;;;;;;;;;;;;;5074344;28;20400;-78
2022/12/24 11:19:53;;;;;;;;;;;;;;;;;;5074108;28;19967;-77
2022/12/24 11:22:22;;;;;;;;;;;;;;;;;;5074283;28;20069;-79
2022/12/24 11:24:57;;;;;;;;;;;;;;;;;;5074071;28;19924;-78
2022/12/24 11:27:29;;;;;;;;;;;;;;;;;;5074370;28;20011;-78
2022/12/24 11:30:11;;;;;;;;;;;;;;;;;;5074676;28;20015;-78
2022/12/24 11:32:39;;;;;;;;;;;;;;;;;;5074192;28;19970;-78
2022/12/24 11:35:06;;;;;;;;;;;;;;;;;;5073818;28;19928;-77
2022/12/24 11:37:33;;;;;;;;;;;;;;;;;;5074556;28;19931;-77
2022/12/24 11:40:00;;;;;;;;;;;;;;;;;;5074719;28;20010;-79
2022/12/24 11:42:30;;;;;;;;;;;;;;;;;;5074520;28;19967;-79
2022/12/24 11:44:58;;;;;;;;;;;;;;;;;;5075063;28;19931;-78
2022/12/24 11:47:32;;;;;;;;;;;;;;;;;;5075758;28;19925;-79
2022/12/24 11:50:18;;;;;;;;;;;;;;;;;;5081069;28;19979;-77
2022/12/24 11:52:47;;;;;;;;;;;;;;;;;;5079090;28;20011;-77
2022/12/24 11:55:17;;;;;;;;;;;;;;;;;;5078626;28;20511;-77
2022/12/24 11:57:47;;;;;;;;;;;;;;;;;;5076477;28;19994;-78
2022/12/24 12:00:14;;;;;;;;;;;;;;;;;;5081140;28;19924;-78
2022/12/24 12:02:41;;;;;;;;;;;;;;;;;;5081886;28;20061;-78
2022/12/24 12:05:11;;;;;;;;;;;;;;;;;;5085154;28;19968;-78
2022/12/24 12:07:38;;;;;;;;;;;;;;;;;;5086513;28;19946;-78
2022/12/24 12:10:07;;;;;;;;;;;;;;;;;;5085621;28;19931;-78
2022/12/24 12:12:36;;;;;;;;;;;;;;;;;;5080102;28;19982;-77
2022/12/24 12:15:04;;;;;;;;;;;;;;;;;;5083837;28;19945;-77
2022/12/24 12:17:32;;;;;;;;;;;;;;;;;;5083700;28;19931;-78
2022/12/24 12:20:02;;;;;;;;;;;;;;;;;;5082518;28;20357;-78
2022/12/24 12:22:35;;;;;;;;;;;;;;;;;;5084417;28;19924;-79
2022/12/24 12:25:02;;;;;;;;;;;;;;;;;;5077845;28;19961;-79
2022/12/24 12:27:31;;;;;;;;;;;;;;;;;;5077409;28;20444;-78
2022/12/24 12:30:00;;;;;;;;;;;;;;;;;;5078160;28;19925;-78
2022/12/24 12:32:31;;;;;;;;;;;;;;;;;;5078246;28;19982;-79
2022/12/24 12:35:04;;;;;;;;;;;;;;;;;;5084691;28;19971;-76
2022/12/24 12:37:34;;;;;;;;;;;;;;;;;;5092299;28;19931;-77
2022/12/24 12:40:00;;;;;;;;;;;;;;;;;;5095057;28;19932;-77
2022/12/24 12:42:29;;;;;;;;;;;;;;;;;;5121443;22;19960;-50
2022/12/24 12:45:25;;;;;;;;;;;;;;;;;;5053523;28;19932;-49
2022/12/24 12:48:00;;;;;;;;;;;;;;;;;;5054953;28;19929;-51
2022/12/24 12:50:30;;;;;;;;;;;;;;;;;;5054917;28;19925;-46
2022/12/24 12:53:14;;;;;;;;;;;;;;;;;;5054560;28;19929;-45
2022/12/24 12:55:47;;;;;;;;;;;;;;;;;;5054800;28;19928;-46
2022/12/24 12:58:16;;;;;;;;;;;;;;;;;;5054925;28;19929;-47
2022/12/24 13:00:45;;;;;;;;;;;;;;;;;;5054572;28;20408;-46
2022/12/24 13:03:24;;;;;;;;;;;;;;;;;;5054662;28;20286;-50
2022/12/24 13:06:06;;;;;;;;;;;;;;;;;;5054782;28;20359;-47
2022/12/24 13:08:43;;;;;;;;;;;;;;;;;;5054744;28;19932;-49
2022/12/24 13:11:16;;;;;;;;;;;;;;;;;;5054756;28;19925;-46
2022/12/24 13:13:48;;;;;;;;;;;;;;;;;;5054253;28;20435;-48
2022/12/24 13:16:32;;;;;;;;;;;;;;;;;;5054494;28;19925;-50
2022/12/24 13:19:07;;;;;;;;;;;;;;;;;;5014053;28;19925;-46
2022/12/24 13:21:34;;;;;;;;;;;;;;;;;;5054336;28;19925;-47
2022/12/24 13:24:24;;;;;;;;;;;;;;;;;;5054107;28;19963;-51
2022/12/24 13:27:01;;;;;;;;;;;;;;;;;;5054566;28;20448;-50
2022/12/24 13:29:38;;;;;;;;;;;;;;;;;;5054317;28;19924;-47
2022/12/24 13:32:23;;;;;;;;;;;;;;;;;;5053400;28;19924;-46
2022/12/24 13:34:51;;;;;;;;;;;;;;;;;;5053930;28;19925;-46
2022/12/24 13:37:20;;;;;;;;;;;;;;;;;;5053848;28;20451;-46
2022/12/24 13:40:02;;;;;;;;;;;;;;;;;;5053605;28;19924;-46
2022/12/24 13:43:05;;;;;;;;;;;;;;;;;;5036787;28;20290;-48
2022/12/24 13:45:42;;;;;;;;;;;;;;;;;;5053825;28;19929;-49
2022/12/24 13:48:14;;;;;;;;;;;;;;;;;;5053774;28;19970;-49
2022/12/24 13:50:43;;;;;;;;;;;;;;;;;;5053685;28;19928;-47
2022/12/24 13:53:20;;;;;;;;;;;;;;;;;;5053483;28;19925;-50
2022/12/24 13:55:49;;;;;;;;;;;;;;;;;;5053834;28;20471;-47
2022/12/24 13:58:18;;;;;;;;;;;;;;;;;;5053615;28;19924;-46
2022/12/24 14:00:51;;;;;;;;;;;;;;;;;;5053187;28;20405;-49
2022/12/24 14:03:24;;;;;;;;;;;;;;;;;;5053334;28;19925;-46
2022/12/24 14:05:52;;;;;;;;;;;;;;;;;;5053234;28;19925;-50
2022/12/24 14:08:27;;;;;;;;;;;;;;;;;;5053434;28;19928;-47
2022/12/24 14:10:59;;;;;;;;;;;;;;;;;;5053643;28;19929;-47
2022/12/24 14:13:45;;;;;;;;;;;;;;;;;;5053041;28;19948;-49
2022/12/24 14:16:15;;;;;;;;;;;;;;;;;;5052832;28;19983;-49
2022/12/24 14:18:42;;;;;;;;;;;;;;;;;;5053121;28;19947;-50
2022/12/24 14:21:16;;;;;;;;;;;;;;;;;;5052898;28;20352;-47
2022/12/24 14:23:45;;;;;;;;;;;;;;;;;;5052865;28;19936;-51
2022/12/24 14:26:14;;;;;;;;;;;;;;;;;;5053028;28;20027;-47
2022/12/24 14:28:42;;;;;;;;;;;;;;;;;;5052848;28;19994;-49
2022/12/24 14:31:14;;;;;;;;;;;;;;;;;;5053088;28;19935;-47
2022/12/24 14:33:40;;;;;;;;;;;;;;;;;;5052723;28;19925;-47
2022/12/24 14:36:07;;;;;;;;;;;;;;;;;;5052689;28;19986;-48
2022/12/24 14:38:34;;;;;;;;;;;;;;;;;;5052639;28;20054;-50
2022/12/24 14:41:02;;;;;;;;;;;;;;;;;;5052681;28;19970;-50
2022/12/24 14:43:35;;;;;;;;;;;;;;;;;;5051950;28;19925;-48
2022/12/24 14:46:07;;;;;;;;;;;;;;;;;;5052589;28;19924;-48
2022/12/24 14:48:38;;;;;;;;;;;;;;;;;;5052670;28;19924;-47
2022/12/24 14:51:09;;;;;;;;;;;;;;;;;;5052697;28;20388;-47
2022/12/24 14:53:48;;;;;;;;;;;;;;;;;;5052357;28;19932;-48
2022/12/24 14:56:15;;;;;;;;;;;;;;;;;;5052844;28;19932;-48
2022/12/24 14:58:42;;;;;;;;;;;;;;;;;;5052761;28;19929;-47
2022/12/24 15:01:19;;;;;;;;;;;;;;;;;;5052437;28;19924;-49
2022/12/24 15:03:59;;;;;;;;;;;;;;;;;;5052377;28;19932;-47
2022/12/24 15:06:25;;;;;;;;;;;;;;;;;;5052284;28;19928;-47
2022/12/24 15:08:52;;;;;;;;;;;;;;;;;;5052549;28;19986;-48
2022/12/24 15:11:20;;;;;;;;;;;;;;;;;;5052269;28;20393;-48
2022/12/24 15:13:48;;;;;;;;;;;;;;;;;;5052032;28;19932;-51
2022/12/24 15:16:22;;;;;;;;;;;;;;;;;;5052267;28;19931;-49
2022/12/24 15:18:52;;;;;;;;;;;;;;;;;;5052278;28;19928;-51
2022/12/24 15:21:20;;;;;;;;;;;;;;;;;;5052188;28;20385;-50
2022/12/24 15:23:48;;;;;;;;;;;;;;;;;;5052181;28;19928;-47
2022/12/24 15:26:21;;;;;;;;;;;;;;;;;;5052041;28;19980;-49
2022/12/24 15:28:47;;;;;;;;;;;;;;;;;;5052395;28;20356;-47
2022/12/24 15:31:15;;;;;;;;;;;;;;;;;;5052097;28;19978;-49
2022/12/24 15:33:44;;;;;;;;;;;;;;;;;;5052034;28;20271;-52
2022/12/24 15:36:13;;;;;;;;;;;;;;;;;;5051835;28;19948;-46
2022/12/24 15:38:40;;;;;;;;;;;;;;;;;;5052338;28;19979;-47
2022/12/24 15:41:08;;;;;;;;;;;;;;;;;;5051730;28;19971;-49
2022/12/24 15:43:38;;;;;;;;;;;;;;;;;;5051766;28;20304;-52
2022/12/24 15:46:05;;;;;;;;;;;;;;;;;;5051970;28;19929;-48
2022/12/24 15:48:32;;;;;;;;;;;;;;;;;;5052032;28;19955;-47
2022/12/24 15:50:59;;;;;;;;;;;;;;;;;;5051862;28;20200;-48
2022/12/24 15:53:29;;;;;;;;;;;;;;;;;;5051912;28;20402;-49
2022/12/24 15:56:06;;;;;;;;;;;;;;;;;;5053327;28;19925;-49
2022/12/24 15:58:34;;;;;;;;;;;;;;;;;;5056188;28;19977;-50
2022/12/24 16:01:01;;;;;;;;;;;;;;;;;;5055398;28;19982;-49
2022/12/24 16:03:28;;;;;;;;;;;;;;;;;;5055651;28;20275;-51
2022/12/24 16:05:59;;;;;;;;;;;;;;;;;;5055536;28;19929;-48
2022/12/24 16:08:28;;;;;;;;;;;;;;;;;;5055563;28;20385;-53
2022/12/24 16:11:08;;;;;;;;;;;;;;;;;;5055352;28;20381;-48
2022/12/24 16:13:36;;;;;;;;;;;;;;;;;;5055266;28;19931;-48
2022/12/24 16:16:04;;;;;;;;;;;;;;;;;;5055476;28;19929;-46
2022/12/24 16:18:32;;;;;;;;;;;;;;;;;;5055277;28;20020;-47
2022/12/24 16:20:59;;;;;;;;;;;;;;;;;;5055224;28;19925;-47
2022/12/24 16:23:26;;;;;;;;;;;;;;;;;;5054938;28;19971;-49
2022/12/24 16:25:53;;;;;;;;;;;;;;;;;;5055193;28;20343;-49
2022/12/24 16:28:21;;;;;;;;;;;;;;;;;;5055269;28;19925;-48
2022/12/24 16:30:48;;;;;;;;;;;;;;;;;;5055052;28;19925;-50
2022/12/24 16:33:15;;;;;;;;;;;;;;;;;;5054799;28;19931;-54
2022/12/24 16:35:42;;;;;;;;;;;;;;;;;;5055261;28;19929;-51
2022/12/24 16:38:08;;;;;;;;;;;;;;;;;;5054853;28;19935;-52
2022/12/24 16:40:35;;;;;;;;;;;;;;;;;;5054928;28;19925;-49
2022/12/24 16:45:48;;;;;;;;;;;;;;;;;;5055171;28;20063;-49
2022/12/24 16:48:17;;;;;;;;;;;;;;;;;;5054647;28;19924;-48
2022/12/24 16:50:43;;;;;;;;;;;;;;;;;;5054824;28;19925;-51
2022/12/24 16:53:12;;;;;;;;;;;;;;;;;;5054571;28;19925;-49
2022/12/24 16:55:39;;;;;;;;;;;;;;;;;;5055017;28;20336;-47
2022/12/24 16:58:05;;;;;;;;;;;;;;;;;;5054551;28;19931;-51
2022/12/24 17:00:32;;;;;;;;;;;;;;;;;;5054441;28;19932;-53
2022/12/24 17:03:00;;;;;;;;;;;;;;;;;;5054255;28;19929;-47
2022/12/24 17:05:27;;;;;;;;;;;;;;;;;;5055044;28;20409;-48
2022/12/24 17:07:53;;;;;;;;;;;;;;;;;;5053747;28;19937;-48
2022/12/24 17:10:20;;;;;;;;;;;;;;;;;;5054962;28;19925;-50